^^
Grace C. Lehan Memorial Weather Station Historical Data
Daily Summary for April 25, 2022 Units:  Both    English   Metric
Daily Weekly Monthly Yearly
  High: Low: Average:
Temperature: 33 °F /  0.6 °C 25 °F /  -3.9 °C 28.6 °F /  -1.9 °C
Dew Point: 29.6 °F /  -1.3 °C 9.9 °F /  -12.3 °C 25.1 °F /  -3.8 °C
Humidity: 92% 41% 87%
Wind Speed: 6mph /  9.7km/h - 1.5mph /  2.4km/h
Wind Gust: 18mph /  29km/h - -
Wind- - SW
Pressure: 30.39 in /  1029 hPa 29.90 in /  1012.4 hPa -
Precipitation: 0.01 in /  0.25 mm    
 
 
Tabular Data for April 25, 2022
Time Temperature Dew Point Pressure Wind Wind Speed Wind Gust Humidity Rainfall Rate (Hourly) solar
00:00 30.8 °F /  -0.7 °C 10.4 °F /  -12 °C 30.39in /  1029hPa ENE 1mph /  1.6km/h 5mph /  8km/h 42% 0.00in /  0mm 0 W/m2
00:30 30.8 °F /  -0.7 °C 10.4 °F /  -12 °C 30.39in /  1029hPa Calm   4mph /  6.4km/h 42% 0.00in /  0mm 0 W/m2
01:00 30.8 °F /  -0.7 °C 9.9 °F /  -12.3 °C 30.37in /  1028.3hPa Calm   2mph /  3.2km/h 41% 0.00in /  0mm 0 W/m2
01:30 30.8 °F /  -0.7 °C 9.9 °F /  -12.3 °C 30.37in /  1028.3hPa Calm   2mph /  3.2km/h 41% 0.00in /  0mm 0 W/m2
02:00 30.7 °F /  -0.7 °C 10.3 °F /  -12.1 °C 30.35in /  1027.7hPa ENE 1mph /  1.6km/h 3mph /  4.8km/h 42% 0.00in /  0mm 0 W/m2
02:30 30.4 °F /  -0.9 °C 10.6 °F /  -11.9 °C 30.33in /  1027hPa ENE 1mph /  1.6km/h 6mph /  9.7km/h 43% 0.00in /  0mm 0 W/m2
03:00 29.2 °F /  -1.6 °C 16.3 °F /  -8.7 °C 30.33in /  1027hPa Calm   4mph /  6.4km/h 58% 0.00in /  0mm 0 W/m2
03:30 27 °F /  -2.8 °C 20.2 °F /  -6.6 °C 30.32in /  1026.6hPa Calm   4mph /  6.4km/h 75% 0.00in /  0mm 0 W/m2
04:04 25.8 °F /  -3.4 °C 21.6 °F /  -5.8 °C 30.27in /  1024.9hPa ENE 3.2mph /  5.1km/h 5mph /  8km/h 84% 0.00in /  0mm 0 W/m2
04:09 25.7 °F /  -3.5 °C 21.6 °F /  -5.8 °C 30.27in /  1024.9hPa ENE 1.6mph /  2.6km/h 5mph /  8km/h 84.1% 0.00in /  0mm 0 W/m2
04:14 25.6 °F /  -3.6 °C 21.8 °F /  -5.7 °C 30.26in /  1024.6hPa ENE 1.4mph /  2.3km/h 5mph /  8km/h 85% 0.00in /  0mm 0 W/m2
04:19 25.5 °F /  -3.6 °C 21.8 °F /  -5.7 °C 30.26in /  1024.6hPa ENE 0.5mph /  0.8km/h 5mph /  8km/h 85.4% 0.00in /  0mm 0 W/m2
04:24 25.5 °F /  -3.6 °C 21.9 °F /  -5.6 °C 30.26in /  1024.6hPa ENE 1.3mph /  2.1km/h 5mph /  8km/h 86% 0.00in /  0mm 0 W/m2
04:29 25.4 °F /  -3.7 °C 21.8 °F /  -5.7 °C 30.26in /  1024.6hPa ENE 1.2mph /  1.9km/h 5mph /  8km/h 86% 0.00in /  0mm 0 W/m2
04:34 25.4 °F /  -3.7 °C 22 °F /  -5.6 °C 30.26in /  1024.6hPa NE 2.1mph /  3.4km/h 6mph /  9.7km/h 86.7% 0.00in /  0mm 0 W/m2
04:39 25.4 °F /  -3.7 °C 22.1 °F /  -5.5 °C 30.25in /  1024.3hPa NE 2.4mph /  3.9km/h 6mph /  9.7km/h 87% 0.00in /  0mm 0 W/m2
04:44 25.3 °F /  -3.7 °C 22 °F /  -5.6 °C 30.23in /  1023.6hPa NE 3.9mph /  6.3km/h 10mph /  16.1km/h 87% 0.00in /  0mm 0 W/m2
04:49 25.2 °F /  -3.8 °C 21.9 °F /  -5.6 °C 30.22in /  1023.2hPa NE 3.8mph /  6.1km/h 12mph /  19.3km/h 87.1% 0.00in /  0mm 0 W/m2
04:54 25.1 °F /  -3.8 °C 22.1 °F /  -5.5 °C 30.21in /  1022.9hPa ENE 2.8mph /  4.5km/h 12mph /  19.3km/h 88% 0.00in /  0mm 0 W/m2
04:59 25 °F /  -3.9 °C 22 °F /  -5.6 °C 30.21in /  1022.9hPa NE 2.5mph /  4km/h 12mph /  19.3km/h 88% 0.00in /  0mm 0 W/m2
05:04 25 °F /  -3.9 °C 22 °F /  -5.6 °C 30.21in /  1022.9hPa NE 1.2mph /  1.9km/h 12mph /  19.3km/h 88% 0.00in /  0mm 0 W/m2
05:09 25 °F /  -3.9 °C 22 °F /  -5.6 °C 30.22in /  1023.2hPa NE 0.9mph /  1.4km/h 5mph /  8km/h 88.3% 0.00in /  0mm 0 W/m2
05:14 25.1 °F /  -3.8 °C 22.2 °F /  -5.4 °C 30.22in /  1023.2hPa North 1.5mph /  2.4km/h 5mph /  8km/h 88.9% 0.00in /  0mm 0 W/m2
05:19 25.1 °F /  -3.8 °C 22.3 °F /  -5.4 °C 30.22in /  1023.2hPa NNW 1.6mph /  2.6km/h 5mph /  8km/h 89% 0.00in /  0mm 0 W/m2
05:24 25.1 °F /  -3.8 °C 22.3 °F /  -5.4 °C 30.21in /  1022.9hPa North 1.7mph /  2.7km/h 9mph /  14.5km/h 89% 0.00in /  0mm 0 W/m2
05:29 25.2 °F /  -3.8 °C 22.4 °F /  -5.3 °C 30.21in /  1022.9hPa North 0.7mph /  1.1km/h 9mph /  14.5km/h 89% 0.00in /  0mm 0 W/m2
05:34 25.1 °F /  -3.8 °C 22.3 °F /  -5.4 °C 30.20in /  1022.6hPa NE 1.7mph /  2.7km/h 9mph /  14.5km/h 89% 0.00in /  0mm 0 W/m2
05:39 25.1 °F /  -3.8 °C 22.3 °F /  -5.4 °C 30.19in /  1022.2hPa NE 1.1mph /  1.8km/h 4mph /  6.4km/h 89% 0.00in /  0mm 0 W/m2
05:44 25.1 °F /  -3.8 °C 22.4 °F /  -5.3 °C 30.19in /  1022.2hPa NNE 2.2mph /  3.5km/h 10mph /  16.1km/h 89% 0.00in /  0mm 0 W/m2
05:49 25.2 °F /  -3.8 °C 22.4 °F /  -5.3 °C 30.19in /  1022.2hPa NE 1.1mph /  1.8km/h 10mph /  16.1km/h 89% 0.00in /  0mm 0 W/m2
05:54 25.2 °F /  -3.8 °C 22.4 °F /  -5.3 °C 30.19in /  1022.2hPa NNW 1mph /  1.6km/h 10mph /  16.1km/h 89% 0.00in /  0mm 0 W/m2
05:59 25.2 °F /  -3.8 °C 22.4 °F /  -5.3 °C 30.19in /  1022.2hPa NNE 0.9mph /  1.4km/h 10mph /  16.1km/h 89% 0.00in /  0mm 0 W/m2
06:04 25.2 °F /  -3.8 °C 22.4 °F /  -5.3 °C 30.18in /  1021.9hPa North 3.1mph /  5km/h 14mph /  22.5km/h 89% 0.00in /  0mm 0 W/m2
06:09 25.2 °F /  -3.8 °C 22.5 °F /  -5.3 °C 30.18in /  1021.9hPa NNW 3.1mph /  5km/h 14mph /  22.5km/h 89% 0.00in /  0mm 0 W/m2
06:14 25.3 °F /  -3.7 °C 22.6 °F /  -5.2 °C 30.18in /  1021.9hPa NNW 2.4mph /  3.9km/h 14mph /  22.5km/h 89.5% 0.00in /  0mm 0 W/m2
06:19 25.3 °F /  -3.7 °C 22.8 °F /  -5.1 °C 30.17in /  1021.6hPa North 2.4mph /  3.9km/h 14mph /  22.5km/h 90% 0.00in /  0mm 0 W/m2
06:24 25.3 °F /  -3.7 °C 22.8 °F /  -5.1 °C 30.16in /  1021.2hPa NNE 1.9mph /  3.1km/h 14mph /  22.5km/h 90% 0.00in /  0mm 0 W/m2
06:29 25.3 °F /  -3.7 °C 22.8 °F /  -5.1 °C 30.16in /  1021.2hPa North 1.1mph /  1.8km/h 14mph /  22.5km/h 90% 0.00in /  0mm 0 W/m2
06:34 25.3 °F /  -3.7 °C 22.8 °F /  -5.1 °C 30.16in /  1021.2hPa NE 1.2mph /  1.9km/h 14mph /  22.5km/h 90% 0.00in /  0mm 0 W/m2
06:39 25.3 °F /  -3.7 °C 22.8 °F /  -5.1 °C 30.15in /  1020.9hPa NNE 1.2mph /  1.9km/h 4mph /  6.4km/h 90% 0.00in /  0mm 0 W/m2
06:44 25.4 °F /  -3.7 °C 22.9 °F /  -5.1 °C 30.15in /  1020.9hPa North 1.7mph /  2.7km/h 8mph /  12.9km/h 90% 0.00in /  0mm 0 W/m2
06:49 25.4 °F /  -3.7 °C 22.9 °F /  -5.1 °C 30.14in /  1020.5hPa North 1.7mph /  2.7km/h 8mph /  12.9km/h 90% 0.00in /  0mm 0 W/m2
06:54 25.4 °F /  -3.7 °C 22.9 °F /  -5.1 °C 30.15in /  1020.9hPa North 1.8mph /  2.9km/h 8mph /  12.9km/h 90% 0.00in /  0mm 0 W/m2
06:59 25.4 °F /  -3.7 °C 22.9 °F /  -5.1 °C 30.15in /  1020.9hPa NE 1.8mph /  2.9km/h 9mph /  14.5km/h 90% 0.00in /  0mm 0 W/m2
07:04 25.4 °F /  -3.7 °C 22.9 °F /  -5.1 °C 30.16in /  1021.2hPa NNW 0.9mph /  1.4km/h 9mph /  14.5km/h 90% 0.00in /  0mm 0 W/m2
07:09 25.5 °F /  -3.6 °C 23 °F /  -5 °C 30.16in /  1021.2hPa NNW 1.4mph /  2.3km/h 9mph /  14.5km/h 90% 0.00in /  0mm 0 W/m2
07:14 25.6 °F /  -3.6 °C 23 °F /  -5 °C 30.15in /  1020.9hPa NNW 1.6mph /  2.6km/h 9mph /  14.5km/h 90% 0.00in /  0mm 0 W/m2
07:19 25.6 °F /  -3.6 °C 23.1 °F /  -4.9 °C 30.16in /  1021.2hPa NNW 1.5mph /  2.4km/h 9mph /  14.5km/h 90% 0.00in /  0mm 5 W/m2
07:24 25.6 °F /  -3.6 °C 23.1 °F /  -4.9 °C 30.15in /  1020.9hPa NNE 0.7mph /  1.1km/h 9mph /  14.5km/h 90% 0.00in /  0mm 7 W/m2
07:29 25.6 °F /  -3.6 °C 23.2 °F /  -4.9 °C 30.15in /  1020.9hPa NNE 0.6mph /  1km/h 9mph /  14.5km/h 90.5% 0.00in /  0mm 7 W/m2
07:34 25.7 °F /  -3.5 °C 23.4 °F /  -4.8 °C 30.14in /  1020.5hPa NNE 1.4mph /  2.3km/h 9mph /  14.5km/h 91% 0.00in /  0mm 9 W/m2
07:39 25.7 °F /  -3.5 °C 23.5 °F /  -4.7 °C 30.13in /  1020.2hPa NE 1.6mph /  2.6km/h 6mph /  9.7km/h 91% 0.00in /  0mm 11 W/m2
07:44 25.8 °F /  -3.4 °C 23.5 °F /  -4.7 °C 30.14in /  1020.5hPa North 1.9mph /  3.1km/h 9mph /  14.5km/h 91% 0.00in /  0mm 12 W/m2
07:49 25.8 °F /  -3.4 °C 23.5 °F /  -4.7 °C 30.14in /  1020.5hPa North 1.5mph /  2.4km/h 9mph /  14.5km/h 91% 0.00in /  0mm 12 W/m2
07:54 25.8 °F /  -3.4 °C 23.5 °F /  -4.7 °C 30.13in /  1020.2hPa NNW 1.9mph /  3.1km/h 9mph /  14.5km/h 91% 0.00in /  0mm 11 W/m2
07:59 25.8 °F /  -3.4 °C 23.5 °F /  -4.7 °C 30.13in /  1020.2hPa NNW 2mph /  3.2km/h 9mph /  14.5km/h 91% 0.00in /  0mm 14 W/m2
08:04 25.8 °F /  -3.4 °C 23.5 °F /  -4.7 °C 30.11in /  1019.5hPa NNW 1mph /  1.6km/h 1mph /  1.6km/h 91% 0.00in /  0mm 11 W/m2
08:09 25.8 °F /  -3.4 °C 23.5 °F /  -4.7 °C 30.11in /  1019.5hPa North 2.2mph /  3.5km/h 8mph /  12.9km/h 91% 0.00in /  0mm 18 W/m2
08:14 25.8 °F /  -3.4 °C 23.5 °F /  -4.7 °C 30.11in /  1019.5hPa NNW 3.6mph /  5.8km/h 12mph /  19.3km/h 91% 0.00in /  0mm 18 W/m2
08:19 25.8 °F /  -3.4 °C 23.6 °F /  -4.7 °C 30.11in /  1019.5hPa North 3.1mph /  5km/h 13mph /  20.9km/h 91% 0.00in /  0mm 42 W/m2
08:24 25.9 °F /  -3.4 °C 23.6 °F /  -4.7 °C 30.10in /  1019.2hPa NNW 3.3mph /  5.3km/h 13mph /  20.9km/h 91% 0.00in /  0mm 42 W/m2
08:29 26 °F /  -3.3 °C 23.7 °F /  -4.6 °C 30.10in /  1019.2hPa North 2.9mph /  4.7km/h 13mph /  20.9km/h 91% 0.00in /  0mm 37 W/m2
08:34 26 °F /  -3.3 °C 23.7 °F /  -4.6 °C 30.10in /  1019.2hPa North 3.4mph /  5.5km/h 13mph /  20.9km/h 91% 0.00in /  0mm 39 W/m2
08:39 26.1 °F /  -3.3 °C 23.8 °F /  -4.6 °C 30.10in /  1019.2hPa North 2.4mph /  3.9km/h 11mph /  17.7km/h 91% 0.00in /  0mm 33 W/m2
08:44 26.1 °F /  -3.3 °C 23.9 °F /  -4.5 °C 30.10in /  1019.2hPa NNE 0.8mph /  1.3km/h 11mph /  17.7km/h 91% 0.00in /  0mm 32 W/m2
08:49 26.2 °F /  -3.2 °C 23.9 °F /  -4.5 °C 30.08in /  1018.5hPa NNW 2.3mph /  3.7km/h 11mph /  17.7km/h 91% 0.00in /  0mm 33 W/m2
08:54 26.2 °F /  -3.2 °C 24 °F /  -4.4 °C 30.07in /  1018.2hPa NNW 0.8mph /  1.3km/h 11mph /  17.7km/h 91% 0.00in /  0mm 37 W/m2
08:59 26.2 °F /  -3.2 °C 24 °F /  -4.4 °C 30.06in /  1017.8hPa North 1.2mph /  1.9km/h 11mph /  17.7km/h 91% 0.00in /  0mm 37 W/m2
09:04 26.3 °F /  -3.2 °C 24 °F /  -4.4 °C 30.05in /  1017.5hPa North 1.7mph /  2.7km/h 11mph /  17.7km/h 91% 0.00in /  0mm 35 W/m2
09:09 26.3 °F /  -3.2 °C 24 °F /  -4.4 °C 30.05in /  1017.5hPa NNE 1.1mph /  1.8km/h 7mph /  11.3km/h 91% 0.00in /  0mm 35 W/m2
09:14 26.4 °F /  -3.1 °C 24.1 °F /  -4.4 °C 30.05in /  1017.5hPa North 1.2mph /  1.9km/h 7mph /  11.3km/h 91% 0.00in /  0mm 26 W/m2
09:19 26.4 °F /  -3.1 °C 24.2 °F /  -4.3 °C 30.07in /  1018.2hPa NNW 2.4mph /  3.9km/h 9mph /  14.5km/h 91% 0.00in /  0mm 19 W/m2
09:24 26.5 °F /  -3.1 °C 24.2 °F /  -4.3 °C 30.06in /  1017.8hPa NNW 0.4mph /  0.6km/h 9mph /  14.5km/h 91% 0.00in /  0mm 26 W/m2
09:29 26.5 °F /  -3.1 °C 24.2 °F /  -4.3 °C 30.04in /  1017.2hPa North 1.8mph /  2.9km/h 9mph /  14.5km/h 91% 0.00in /  0mm 33 W/m2
09:34 26.6 °F /  -3 °C 24.4 °F /  -4.2 °C 30.04in /  1017.2hPa NNW 0.8mph /  1.3km/h 9mph /  14.5km/h 91% 0.00in /  0mm 42 W/m2
09:39 26.8 °F /  -2.9 °C 24.5 °F /  -4.2 °C 30.03in /  1016.8hPa NNE 0.9mph /  1.4km/h 6mph /  9.7km/h 91% 0.00in /  0mm 42 W/m2
09:44 27 °F /  -2.8 °C 24.7 °F /  -4.1 °C 30.02in /  1016.5hPa NNE 1mph /  1.6km/h 6mph /  9.7km/h 91.2% 0.00in /  0mm 67 W/m2
09:49 27 °F /  -2.8 °C 25 °F /  -3.9 °C 30.02in /  1016.5hPa North 1.6mph /  2.6km/h 9mph /  14.5km/h 91.8% 0.00in /  0mm 67 W/m2
09:54 27.2 °F /  -2.7 °C 25.1 °F /  -3.8 °C 30.02in /  1016.5hPa NNW 0.2mph /  0.3km/h 9mph /  14.5km/h 92% 0.00in /  0mm 35 W/m2
09:59 27.2 °F /  -2.7 °C 25.2 °F /  -3.8 °C 30.02in /  1016.5hPa NNW 2mph /  3.2km/h 9mph /  14.5km/h 92% 0.00in /  0mm 42 W/m2
10:04 27.3 °F /  -2.6 °C 25.3 °F /  -3.7 °C 30.02in /  1016.5hPa NNW 2.9mph /  4.7km/h 9mph /  14.5km/h 92% 0.00in /  0mm 53 W/m2
10:09 27.3 °F /  -2.6 °C 25.3 °F /  -3.7 °C 30.00in /  1015.8hPa NNW 1.2mph /  1.9km/h 7mph /  11.3km/h 92% 0.00in /  0mm 63 W/m2
10:14 27.3 °F /  -2.6 °C 25.3 °F /  -3.7 °C 30.00in /  1015.8hPa North 1.4mph /  2.3km/h 7mph /  11.3km/h 92% 0.00in /  0mm 84 W/m2
10:19 27.4 °F /  -2.6 °C 25.4 °F /  -3.7 °C 30.00in /  1015.8hPa North 1.1mph /  1.8km/h 7mph /  11.3km/h 92% 0.00in /  0mm 123 W/m2
10:24 27.5 °F /  -2.5 °C 25.5 °F /  -3.6 °C 29.98in /  1015.1hPa NW 4.8mph /  7.7km/h 11mph /  17.7km/h 92% 0.00in /  0mm 123 W/m2
10:29 27.5 °F /  -2.5 °C 25.3 °F /  -3.7 °C 29.98in /  1015.1hPa North 1.8mph /  2.9km/h 11mph /  17.7km/h 91.4% 0.00in /  0mm 109 W/m2
10:34 27.6 °F /  -2.4 °C 25.6 °F /  -3.6 °C 29.98in /  1015.1hPa NNW 2.4mph /  3.9km/h 11mph /  17.7km/h 92% 0.00in /  0mm 95 W/m2
10:39 27.7 °F /  -2.4 °C 25.5 °F /  -3.6 °C 29.98in /  1015.1hPa North 1.3mph /  2.1km/h 11mph /  17.7km/h 91.6% 0.00in /  0mm 88 W/m2
10:44 27.7 °F /  -2.4 °C 25.6 °F /  -3.6 °C 29.97in /  1014.8hPa NNW 1.8mph /  2.9km/h 11mph /  17.7km/h 91.6% 0.00in /  0mm 84 W/m2
10:49 27.7 °F /  -2.4 °C 25.4 °F /  -3.7 °C 29.96in /  1014.4hPa NNW 2mph /  3.2km/h 11mph /  17.7km/h 91% 0.00in /  0mm 81 W/m2
10:50 27.8 °F /  -2.3 °C 25.5 °F /  -3.6 °C 29.95in /  1014.1hPa North 0.4mph /  0.6km/h 11mph /  17.7km/h 91% 0.00in /  0mm 84 W/m2
11:00 27.8 °F /  -2.3 °C 25.5 °F /  -3.6 °C 29.92in /  1013.1hPa NNE 2mph /  3.2km/h 11mph /  17.7km/h 91% 0.00in /  0mm 86 W/m2
11:30 28.8 °F /  -1.8 °C 26.5 °F /  -3.1 °C 29.91in /  1012.8hPa NNW 3mph /  4.8km/h 10mph /  16.1km/h 91% 0.00in /  0mm 109 W/m2
12:04 29.3 °F /  -1.5 °C 26.7 °F /  -2.9 °C 29.92in /  1013.1hPa NNW 0.3mph /  0.5km/h 3mph /  4.8km/h 90% 0.00in /  0mm 97 W/m2
12:09 29.3 °F /  -1.5 °C 26.8 °F /  -2.9 °C 29.93in /  1013.4hPa NW 5.5mph /  8.9km/h 12mph /  19.3km/h 90% 0.00in /  0mm 97 W/m2
12:14 29.4 °F /  -1.4 °C 26.8 °F /  -2.9 °C 29.93in /  1013.4hPa NW 3.3mph /  5.3km/h 12mph /  19.3km/h 90% 0.00in /  0mm 93 W/m2
12:19 29.4 °F /  -1.4 °C 26.8 °F /  -2.9 °C 29.94in /  1013.8hPa NW 3.6mph /  5.8km/h 12mph /  19.3km/h 90% 0.00in /  0mm 149 W/m2
12:24 29.3 °F /  -1.5 °C 26.8 °F /  -2.9 °C 29.93in /  1013.4hPa NNW 5.3mph /  8.5km/h 15mph /  24.1km/h 90.4% 0.00in /  0mm 171 W/m2
12:29 29.3 °F /  -1.5 °C 26.8 °F /  -2.9 °C 29.93in /  1013.4hPa NNW 3.3mph /  5.3km/h 15mph /  24.1km/h 90.2% 0.00in /  0mm 181 W/m2
12:34 29.2 °F /  -1.6 °C 26.7 °F /  -2.9 °C 29.93in /  1013.4hPa NW 5.2mph /  8.4km/h 15mph /  24.1km/h 90.3% 0.00in /  0mm 223 W/m2
12:39 29.2 °F /  -1.6 °C 26.9 °F /  -2.8 °C 29.93in /  1013.4hPa North 5.5mph /  8.9km/h 13mph /  20.9km/h 91% 0.00in /  0mm 239 W/m2
12:44 29.3 °F /  -1.5 °C 27 °F /  -2.8 °C 29.93in /  1013.4hPa WNW 6mph /  9.7km/h 18mph /  29km/h 91% 0.00in /  0mm 135 W/m2
12:49 29.4 °F /  -1.4 °C 27.1 °F /  -2.7 °C 29.94in /  1013.8hPa NW 4.5mph /  7.2km/h 18mph /  29km/h 91% 0.00in /  0mm 153 W/m2
12:54 29.6 °F /  -1.3 °C 27.3 °F /  -2.6 °C 29.94in /  1013.8hPa NW 2.5mph /  4km/h 18mph /  29km/h 91% 0.00in /  0mm 253 W/m2
12:59 29.6 °F /  -1.3 °C 27.3 °F /  -2.6 °C 29.91in /  1012.8hPa Calm   18mph /  29km/h 91% 0.00in /  0mm 223 W/m2
13:04 29.9 °F /  -1.2 °C 27.9 °F /  -2.3 °C 29.91in /  1012.8hPa NE 0.5mph /  0.8km/h 18mph /  29km/h 91.9% 0.00in /  0mm 251 W/m2
13:09 30.2 °F /  -1 °C 28.2 °F /  -2.1 °C 29.91in /  1012.8hPa North 1.5mph /  2.4km/h 6mph /  9.7km/h 92% 0.00in /  0mm 255 W/m2
13:14 30.5 °F /  -0.8 °C 28.5 °F /  -1.9 °C 29.90in /  1012.4hPa NNW 1.2mph /  1.9km/h 6mph /  9.7km/h 92% 0.00in /  0mm 294 W/m2
13:19 30.8 °F /  -0.7 °C 28.7 °F /  -1.8 °C 29.91in /  1012.8hPa NNW 1.1mph /  1.8km/h 6mph /  9.7km/h 92% 0.00in /  0mm 308 W/m2
13:24 31 °F /  -0.6 °C 28.7 °F /  -1.8 °C 29.91in /  1012.8hPa NW 2.5mph /  4km/h 7mph /  11.3km/h 91.1% 0.00in /  0mm 200 W/m2
13:29 31 °F /  -0.6 °C 28.7 °F /  -1.8 °C 29.91in /  1012.8hPa NW 0.4mph /  0.6km/h 7mph /  11.3km/h 91% 0.00in /  0mm 199 W/m2
13:34 31.1 °F /  -0.5 °C 28.6 °F /  -1.9 °C 29.91in /  1012.8hPa NNW 1mph /  1.6km/h 7mph /  11.3km/h 90.2% 0.00in /  0mm 179 W/m2
13:39 31.2 °F /  -0.4 °C 28.6 °F /  -1.9 °C 29.92in /  1013.1hPa Calm   5mph /  8km/h 90% 0.00in /  0mm 165 W/m2
13:44 31.4 °F /  -0.3 °C 29 °F /  -1.7 °C 29.92in /  1013.1hPa NNW 0.2mph /  0.3km/h 5mph /  8km/h 90.5% 0.00in /  0mm 165 W/m2
13:49 31.6 °F /  -0.2 °C 29 °F /  -1.7 °C 29.92in /  1013.1hPa NNW 1mph /  1.6km/h 5mph /  8km/h 90% 0.00in /  0mm 176 W/m2
13:54 31.6 °F /  -0.2 °C 29 °F /  -1.7 °C 29.91in /  1012.8hPa NNW 0.8mph /  1.3km/h 6mph /  9.7km/h 90% 0.00in /  0mm 188 W/m2
13:59 31.6 °F /  -0.2 °C 29 °F /  -1.7 °C 29.92in /  1013.1hPa NNW 2mph /  3.2km/h 6mph /  9.7km/h 90% 0.00in /  0mm 214 W/m2
14:04 31.7 °F /  -0.2 °C 29.1 °F /  -1.6 °C 29.92in /  1013.1hPa NNW 0.7mph /  1.1km/h 6mph /  9.7km/h 90% 0.00in /  0mm 230 W/m2
14:09 31.8 °F /  -0.1 °C 29.2 °F /  -1.6 °C 29.92in /  1013.1hPa NNW 0.8mph /  1.3km/h 5mph /  8km/h 90% 0.00in /  0mm 232 W/m2
14:14 32 °F /  0 °C 29.4 °F /  -1.4 °C 29.92in /  1013.1hPa NNW 0.1mph /  0.2km/h 5mph /  8km/h 90% 0.00in /  0mm 192 W/m2
14:19 32.1 °F /  0.1 °C 29.3 °F /  -1.5 °C 29.91in /  1012.8hPa NNW 0.6mph /  1km/h 5mph /  8km/h 89.4% 0.00in /  0mm 181 W/m2
14:24 32 °F /  0 °C 29.6 °F /  -1.3 °C 29.92in /  1013.1hPa North 1mph /  1.6km/h 5mph /  8km/h 90.8% 0.00in /  0mm 160 W/m2
14:29 31.9 °F /  -0.1 °C 29 °F /  -1.7 °C 29.92in /  1013.1hPa North 0.1mph /  0.2km/h 5mph /  8km/h 88.9% 0.00in /  0mm 185 W/m2
14:34 31.9 °F /  -0.1 °C 28.9 °F /  -1.7 °C 29.92in /  1013.1hPa North 0.1mph /  0.2km/h 5mph /  8km/h 88.5% 0.00in /  0mm 193 W/m2
14:39 32 °F /  0 °C 28.9 °F /  -1.7 °C 29.92in /  1013.1hPa North 0.7mph /  1.1km/h 4mph /  6.4km/h 88.3% 0.01in /  0.25mm 193 W/m2
14:44 32 °F /  0 °C 28.9 °F /  -1.7 °C 29.92in /  1013.1hPa North 0.3mph /  0.5km/h 4mph /  6.4km/h 88% 0.01in /  0.25mm 172 W/m2
14:49 32.3 °F /  0.2 °C 29.1 °F /  -1.6 °C 29.91in /  1012.8hPa North 0.3mph /  0.5km/h 4mph /  6.4km/h 88% 0.01in /  0.25mm 234 W/m2
14:54 32.5 °F /  0.3 °C 29.3 °F /  -1.5 °C 29.91in /  1012.8hPa NNE 1.3mph /  2.1km/h 5mph /  8km/h 88% 0.01in /  0.25mm 234 W/m2
14:59 32.6 °F /  0.3 °C 29.3 °F /  -1.5 °C 29.91in /  1012.8hPa NE 1.6mph /  2.6km/h 5mph /  8km/h 87.6% 0.01in /  0.25mm 178 W/m2
15:04 32.4 °F /  0.2 °C 29 °F /  -1.7 °C 29.91in /  1012.8hPa NNE 1.2mph /  1.9km/h 5mph /  8km/h 87% 0.01in /  0.25mm 209 W/m2
15:09 32.5 °F /  0.3 °C 28.9 °F /  -1.7 °C 29.92in /  1013.1hPa North 1.4mph /  2.3km/h 5mph /  8km/h 86.5% 0.01in /  0.25mm 209 W/m2
15:14 32.7 °F /  0.4 °C 29.2 °F /  -1.6 °C 29.92in /  1013.1hPa NNW 1.3mph /  2.1km/h 5mph /  8km/h 87% 0.01in /  0.25mm 171 W/m2
15:19 32.8 °F /  0.4 °C 29.1 °F /  -1.6 °C 29.92in /  1013.1hPa NNW 1mph /  1.6km/h 5mph /  8km/h 86% 0.01in /  0.25mm 190 W/m2
15:24 33 °F /  0.6 °C 29.3 °F /  -1.5 °C 29.92in /  1013.1hPa NNW 0.7mph /  1.1km/h 5mph /  8km/h 86% 0.01in /  0.25mm 183 W/m2
15:29 33 °F /  0.6 °C 29.1 °F /  -1.6 °C 29.92in /  1013.1hPa NNE 1mph /  1.6km/h 5mph /  8km/h 85.4% 0.01in /  0.25mm 114 W/m2
15:34 32.8 °F /  0.4 °C 28.8 °F /  -1.8 °C 29.92in /  1013.1hPa NE 0.1mph /  0.2km/h 5mph /  8km/h 85% 0.01in /  0.25mm 160 W/m2
15:39 32.9 °F /  0.5 °C 28.8 °F /  -1.8 °C 29.92in /  1013.1hPa NE 0.9mph /  1.4km/h 3mph /  4.8km/h 85% 0.01in /  0.25mm 160 W/m2
15:44 32.9 °F /  0.5 °C 28.9 °F /  -1.7 °C 29.92in /  1013.1hPa Calm   3mph /  4.8km/h 85% 0.01in /  0.25mm 86 W/m2
15:49 32.8 °F /  0.4 °C 28.8 °F /  -1.8 °C 29.92in /  1013.1hPa Calm   3mph /  4.8km/h 85% 0.01in /  0.25mm 67 W/m2
15:54 32.8 °F /  0.4 °C 29.1 °F /  -1.6 °C 29.93in /  1013.4hPa NE 0.7mph /  1.1km/h 3mph /  4.8km/h 86% 0.01in /  0.25mm 65 W/m2
15:59 32.8 °F /  0.4 °C 29 °F /  -1.7 °C 29.93in /  1013.4hPa NNE 1.1mph /  1.8km/h 4mph /  6.4km/h 85.8% 0.01in /  0.25mm 35 W/m2
16:04 32.6 °F /  0.3 °C 28.6 °F /  -1.9 °C 29.93in /  1013.4hPa Calm     85% 0.00in /  0mm 23 W/m2
16:09 32.6 °F /  0.3 °C 28.6 °F /  -1.9 °C 29.94in /  1013.8hPa North 0.3mph /  0.5km/h 2mph /  3.2km/h 85% 0.01in /  0.25mm 30 W/m2
16:14 32.5 °F /  0.3 °C 28.5 °F /  -1.9 °C 29.95in /  1014.1hPa North 0.2mph /  0.3km/h 3mph /  4.8km/h 85% 0.01in /  0.25mm 26 W/m2
16:19 32.5 °F /  0.3 °C 28.5 °F /  -1.9 °C 29.96in /  1014.4hPa North 1.6mph /  2.6km/h 7mph /  11.3km/h 85% 0.01in /  0.25mm 18 W/m2
16:24 32.4 °F /  0.2 °C 28.4 °F /  -2 °C 29.97in /  1014.8hPa NNW 1mph /  1.6km/h 7mph /  11.3km/h 85% 0.01in /  0.25mm 21 W/m2
16:29 32.3 °F /  0.2 °C 28.3 °F /  -2.1 °C 29.97in /  1014.8hPa NNW 2.6mph /  4.2km/h 7mph /  11.3km/h 85% 0.01in /  0.25mm 30 W/m2
16:34 32.3 °F /  0.2 °C 28.5 °F /  -1.9 °C 29.98in /  1015.1hPa NNW 2.2mph /  3.5km/h 7mph /  11.3km/h 85.8% 0.01in /  0.25mm 30 W/m2
16:39 32.1 °F /  0.1 °C 28.4 °F /  -2 °C 29.98in /  1015.1hPa NNW 1.4mph /  2.3km/h 7mph /  11.3km/h 86% 0.00in /  0mm 32 W/m2
16:44 32 °F /  0 °C 28.5 °F /  -1.9 °C 29.99in /  1015.5hPa North 1.1mph /  1.8km/h 7mph /  11.3km/h 86.6% 0.00in /  0mm 28 W/m2
16:49 31.9 °F /  -0.1 °C 28.5 °F /  -1.9 °C 30.00in /  1015.8hPa NNW 1.3mph /  2.1km/h 7mph /  11.3km/h 87% 0.00in /  0mm 23 W/m2
16:54 31.7 °F /  -0.2 °C 28.3 °F /  -2.1 °C 30.01in /  1016.1hPa NNW 3.6mph /  5.8km/h 14mph /  22.5km/h 87% 0.00in /  0mm 16 W/m2
16:59 31.5 °F /  -0.3 °C 28.2 °F /  -2.1 °C 30.01in /  1016.1hPa NNW 2.3mph /  3.7km/h 14mph /  22.5km/h 87.4% 0.00in /  0mm 12 W/m2
17:04 31.3 °F /  -0.4 °C 28.1 °F /  -2.2 °C 30.02in /  1016.5hPa NNW 0.1mph /  0.2km/h 14mph /  22.5km/h 88% 0.00in /  0mm 19 W/m2
17:09 31.1 °F /  -0.5 °C 28 °F /  -2.2 °C 30.02in /  1016.5hPa NNW 0.8mph /  1.3km/h 5mph /  8km/h 88% 0.00in /  0mm 16 W/m2
17:14 31 °F /  -0.6 °C 27.9 °F /  -2.3 °C 30.02in /  1016.5hPa NNW 1.2mph /  1.9km/h 6mph /  9.7km/h 88% 0.00in /  0mm 9 W/m2
17:19 30.9 °F /  -0.6 °C 27.8 °F /  -2.3 °C 30.03in /  1016.8hPa NNW 1.7mph /  2.7km/h 7mph /  11.3km/h 88.1% 0.00in /  0mm 5 W/m2
17:24 30.9 °F /  -0.6 °C 28 °F /  -2.2 °C 30.04in /  1017.2hPa NNW 1.9mph /  3.1km/h 8mph /  12.9km/h 89% 0.00in /  0mm 0 W/m2
17:29 30.8 °F /  -0.7 °C 28 °F /  -2.2 °C 30.05in /  1017.5hPa North 0.9mph /  1.4km/h 8mph /  12.9km/h 89% 0.00in /  0mm 0 W/m2
17:34 30.8 °F /  -0.7 °C 27.9 °F /  -2.3 °C 30.05in /  1017.5hPa NE 1.6mph /  2.6km/h 8mph /  12.9km/h 89% 0.00in /  0mm 0 W/m2
17:39 30.6 °F /  -0.8 °C 27.7 °F /  -2.4 °C 30.05in /  1017.5hPa NNW 1.8mph /  2.9km/h 9mph /  14.5km/h 88.5% 0.00in /  0mm 0 W/m2
17:44 30.6 °F /  -0.8 °C 27.4 °F /  -2.6 °C 30.05in /  1017.5hPa Calm   9mph /  14.5km/h 88% 0.00in /  0mm 0 W/m2
17:49 30.5 °F /  -0.8 °C 27.4 °F /  -2.6 °C 30.06in /  1017.8hPa NNW 0.8mph /  1.3km/h 9mph /  14.5km/h 88% 0.00in /  0mm 0 W/m2
17:54 30.5 °F /  -0.8 °C 27.3 °F /  -2.6 °C 30.07in /  1018.2hPa NNW 0.6mph /  1km/h 9mph /  14.5km/h 88% 0.00in /  0mm 0 W/m2
17:59 30.3 °F /  -0.9 °C 27.2 °F /  -2.7 °C 30.07in /  1018.2hPa NNW 0.3mph /  0.5km/h 9mph /  14.5km/h 88% 0.00in /  0mm 0 W/m2
18:04 30.2 °F /  -1 °C 27.1 °F /  -2.7 °C 30.08in /  1018.5hPa NNW 0.2mph /  0.3km/h 9mph /  14.5km/h 88% 0.00in /  0mm 0 W/m2
18:09 30.1 °F /  -1.1 °C 26.8 °F /  -2.9 °C 30.08in /  1018.5hPa Calm   2mph /  3.2km/h 87.3% 0.00in /  0mm 0 W/m2
18:14 30 °F /  -1.1 °C 26.6 °F /  -3 °C 30.08in /  1018.5hPa Calm   2mph /  3.2km/h 87% 0.00in /  0mm 0 W/m2
18:19 29.9 °F /  -1.2 °C 26.5 °F /  -3.1 °C 30.09in /  1018.8hPa Calm   2mph /  3.2km/h 87% 0.00in /  0mm 0 W/m2
18:24 29.7 °F /  -1.3 °C 26.3 °F /  -3.2 °C 30.09in /  1018.8hPa NW 0.3mph /  0.5km/h 7mph /  11.3km/h 87% 0.00in /  0mm 0 W/m2
18:29 29.7 °F /  -1.3 °C 26.3 °F /  -3.2 °C 30.09in /  1018.8hPa NNW 0.8mph /  1.3km/h 7mph /  11.3km/h 87% 0.00in /  0mm 0 W/m2
18:34 30 °F /  -1.1 °C 26.6 °F /  -3 °C 30.09in /  1018.8hPa NW 1.5mph /  2.4km/h 7mph /  11.3km/h 87% 0.00in /  0mm 0 W/m2
18:38 30.3 °F /  -0.9 °C 26.7 °F /  -2.9 °C 30.10in /  1019.2hPa NNE 1.6mph /  2.6km/h 6mph /  9.7km/h 86.1% 0.00in /  0mm 0 W/m2
Hartford County Weather
Compliments of Weather Underground - 4 mb